createdAt,value
2017-06-17T10:20:08.057Z,18.184144
2017-06-17T10:30:12.855Z,18.684502
2017-06-17T10:40:17.929Z,19.246803999999997
2017-06-17T10:50:22.932Z,19.184326
2017-06-17T11:00:27.999Z,18.996892
2017-06-17T11:20:38.376Z,18.934414
2017-06-17T11:30:43.028Z,19.37176
2017-06-17T11:40:48.052Z,19.559193999999998
2017-06-17T11:50:52.953Z,19.559193999999998
2017-06-17T12:00:58.089Z,19.309282
2017-06-17T12:11:03.101Z,19.496716
2017-06-17T12:21:08.133Z,20.121495999999997
2017-06-17T12:31:13.166Z,21.434068
2017-06-17T12:41:18.088Z,21.434068
2017-06-17T12:51:23.124Z,22.183804
2017-06-17T13:01:28.099Z,21.99637
2017-06-17T13:11:33.237Z,21.184155999999998
2017-06-17T13:21:38.345Z,20.996722
2017-06-17T13:31:43.282Z,21.496546
2017-06-17T13:41:48.327Z,22.933539999999997
2017-06-17T13:51:53.320Z,22.183804
2017-06-17T14:01:58.342Z,22.058847999999998
2017-06-17T14:12:03.367Z,21.309112
2017-06-17T14:22:08.291Z,21.621502
2017-06-17T14:32:13.372Z,20.871765999999997
2017-06-17T14:42:18.462Z,20.809288
2017-06-17T14:52:23.331Z,21.059199999999997
2017-06-17T15:02:28.417Z,20.996722
2017-06-17T15:12:33.410Z,20.996722
2017-06-17T15:22:38.468Z,20.621319999999997
2017-06-17T15:32:43.454Z,21.371589999999998
2017-06-17T15:42:48.487Z,21.184155999999998
2017-06-17T15:52:53.463Z,21.559023999999997
2017-06-17T16:02:58.608Z,20.121495999999997
2017-06-17T16:13:03.620Z,20.558842
2017-06-17T16:23:08.668Z,20.996722
2017-06-17T16:33:13.589Z,21.184155999999998
2017-06-17T16:43:18.689Z,20.684331999999998
2017-06-17T16:53:23.619Z,20.558842
2017-06-17T17:03:28.744Z,20.496364
2017-06-17T17:13:33.831Z,20.496364
2017-06-17T17:23:38.694Z,20.433885999999998
2017-06-17T17:33:43.741Z,20.684331999999998
2017-06-17T17:43:49.159Z,20.558842
2017-06-17T17:53:53.778Z,20.371408
2017-06-17T18:03:58.785Z,20.30893
2017-06-17T18:14:03.801Z,20.183974
2017-06-17T18:24:08.826Z,20.183974
2017-06-17T18:44:18.979Z,20.246451999999998
2017-06-17T18:54:23.966Z,20.059018
2017-06-17T19:04:29.003Z,20.059018
2017-06-17T19:14:33.938Z,19.934061999999997
2017-06-17T19:24:38.966Z,19.809106
2017-06-17T19:34:44.069Z,19.746627999999998
2017-06-17T22:05:59.693Z,16.934583999999997
2017-06-17T22:16:03.470Z,16.684672
2017-06-17T22:26:12.437Z,16.559715999999998
2017-06-17T22:36:21.374Z,16.247325999999997
2017-06-17T22:46:30.492Z,16.184848
2017-06-17T22:56:39.444Z,15.934401999999999
2017-06-17T23:06:48.435Z,15.934401999999999
2017-06-17T23:16:57.561Z,15.746967999999999
2017-06-17T23:27:06.585Z,15.746967999999999
2017-06-17T23:37:15.494Z,15.434577999999998
2017-06-17T23:47:24.518Z,15.309621999999997
2017-06-17T23:57:33.577Z,15.184666
